sensor_id;sensor_type;location;lat;lon;timestamp;P1;durP1;ratioP1;P2;durP2;ratioP2
13189;SDS011;6660;48.828;9.120;2022-07-25T00:01:22;9.10;;;8.50;;
13189;SDS011;6660;48.828;9.120;2022-07-25T00:03:51;9.23;;;8.52;;
13189;SDS011;6660;48.828;9.120;2022-07-25T00:06:19;8.70;;;8.10;;
13189;SDS011;6660;48.828;9.120;2022-07-25T00:08:46;9.70;;;9.00;;
13189;SDS011;6660;48.828;9.120;2022-07-25T00:11:13;9.70;;;8.90;;
13189;SDS011;6660;48.828;9.120;2022-07-25T00:13:40;9.98;;;9.27;;
13189;SDS011;6660;48.828;9.120;2022-07-25T00:16:08;9.93;;;9.23;;
13189;SDS011;6660;48.828;9.120;2022-07-25T00:18:35;8.82;;;8.23;;
13189;SDS011;6660;48.828;9.120;2022-07-25T00:21:04;9.85;;;9.10;;
13189;SDS011;6660;48.828;9.120;2022-07-25T00:23:31;9.30;;;8.60;;
13189;SDS011;6660;48.828;9.120;2022-07-25T00:25:58;9.73;;;8.98;;
13189;SDS011;6660;48.828;9.120;2022-07-25T00:28:26;9.18;;;8.48;;
13189;SDS011;6660;48.828;9.120;2022-07-25T00:30:53;9.88;;;9.18;;
13189;SDS011;6660;48.828;9.120;2022-07-25T00:33:20;9.43;;;8.75;;
13189;SDS011;6660;48.828;9.120;2022-07-25T00:35:48;10.02;;;9.32;;
13189;SDS011;6660;48.828;9.120;2022-07-25T00:38:19;9.38;;;8.68;;
13189;SDS011;6660;48.828;9.120;2022-07-25T00:40:46;9.38;;;8.68;;
13189;SDS011;6660;48.828;9.120;2022-07-25T00:43:14;9.60;;;8.90;;
13189;SDS011;6660;48.828;9.120;2022-07-25T00:45:41;9.45;;;8.75;;
13189;SDS011;6660;48.828;9.120;2022-07-25T00:48:08;9.77;;;9.07;;
13189;SDS011;6660;48.828;9.120;2022-07-25T00:50:35;10.13;;;9.32;;
13189;SDS011;6660;48.828;9.120;2022-07-25T00:53:03;9.63;;;8.93;;
13189;SDS011;6660;48.828;9.120;2022-07-25T00:55:32;9.57;;;8.88;;
13189;SDS011;6660;48.828;9.120;2022-07-25T00:57:59;9.65;;;8.88;;
13189;SDS011;6660;48.828;9.120;2022-07-25T01:00:26;9.68;;;8.95;;
13189;SDS011;6660;48.828;9.120;2022-07-25T01:02:54;9.63;;;8.93;;
13189;SDS011;6660;48.828;9.120;2022-07-25T01:05:21;9.88;;;9.18;;
13189;SDS011;6660;48.828;9.120;2022-07-25T01:07:48;10.18;;;9.38;;
13189;SDS011;6660;48.828;9.120;2022-07-25T01:10:16;10.30;;;9.57;;
13189;SDS011;6660;48.828;9.120;2022-07-25T01:12:45;9.70;;;9.00;;
13189;SDS011;6660;48.828;9.120;2022-07-25T01:15:13;10.15;;;9.45;;
13189;SDS011;6660;48.828;9.120;2022-07-25T01:17:41;10.52;;;9.80;;
13189;SDS011;6660;48.828;9.120;2022-07-25T01:20:14;10.48;;;9.57;;
13189;SDS011;6660;48.828;9.120;2022-07-25T01:22:41;10.10;;;9.40;;
13189;SDS011;6660;48.828;9.120;2022-07-25T01:25:09;9.95;;;9.23;;
13189;SDS011;6660;48.828;9.120;2022-07-25T01:27:36;10.05;;;9.30;;
13189;SDS011;6660;48.828;9.120;2022-07-25T01:30:04;10.10;;;9.40;;
13189;SDS011;6660;48.828;9.120;2022-07-25T01:32:32;9.85;;;9.15;;
13189;SDS011;6660;48.828;9.120;2022-07-25T01:34:59;10.10;;;9.35;;
13189;SDS011;6660;48.828;9.120;2022-07-25T01:37:28;9.77;;;9.07;;
13189;SDS011;6660;48.828;9.120;2022-07-25T01:39:55;9.60;;;8.93;;
13189;SDS011;6660;48.828;9.120;2022-07-25T01:42:22;9.98;;;9.23;;
13189;SDS011;6660;48.828;9.120;2022-07-25T01:44:52;10.15;;;9.45;;
13189;SDS011;6660;48.828;9.120;2022-07-25T01:47:23;9.82;;;9.13;;
13189;SDS011;6660;48.828;9.120;2022-07-25T01:49:50;9.98;;;9.27;;
13189;SDS011;6660;48.828;9.120;2022-07-25T01:52:17;9.50;;;8.90;;
13189;SDS011;6660;48.828;9.120;2022-07-25T01:54:46;9.68;;;9.02;;
13189;SDS011;6660;48.828;9.120;2022-07-25T01:57:13;10.10;;;9.30;;
13189;SDS011;6660;48.828;9.120;2022-07-25T01:59:41;10.07;;;9.38;;
13189;SDS011;6660;48.828;9.120;2022-07-25T02:02:08;10.40;;;9.60;;
13189;SDS011;6660;48.828;9.120;2022-07-25T02:04:39;10.13;;;9.43;;
13189;SDS011;6660;48.828;9.120;2022-07-25T02:07:07;10.10;;;9.40;;
13189;SDS011;6660;48.828;9.120;2022-07-25T02:09:34;10.35;;;9.55;;
13189;SDS011;6660;48.828;9.120;2022-07-25T02:12:07;10.50;;;9.60;;
13189;SDS011;6660;48.828;9.120;2022-07-25T02:14:34;10.85;;;10.05;;
13189;SDS011;6660;48.828;9.120;2022-07-25T02:17:01;9.68;;;8.98;;
13189;SDS011;6660;48.828;9.120;2022-07-25T02:19:29;11.02;;;10.10;;
13189;SDS011;6660;48.828;9.120;2022-07-25T02:21:56;10.65;;;9.85;;
13189;SDS011;6660;48.828;9.120;2022-07-25T02:24:23;10.55;;;9.77;;
13189;SDS011;6660;48.828;9.120;2022-07-25T02:26:50;10.18;;;9.38;;
13189;SDS011;6660;48.828;9.120;2022-07-25T02:29:19;10.15;;;9.45;;
13189;SDS011;6660;48.828;9.120;2022-07-25T02:31:46;9.63;;;8.88;;
13189;SDS011;6660;48.828;9.120;2022-07-25T02:34:15;10.40;;;9.50;;
13189;SDS011;6660;48.828;9.120;2022-07-25T02:36:43;9.98;;;9.27;;
13189;SDS011;6660;48.828;9.120;2022-07-25T02:39:11;10.20;;;9.45;;
13189;SDS011;6660;48.828;9.120;2022-07-25T02:41:38;9.65;;;8.85;;
13189;SDS011;6660;48.828;9.120;2022-07-25T02:44:05;9.93;;;9.23;;
13189;SDS011;6660;48.828;9.120;2022-07-25T02:46:34;9.75;;;9.05;;
13189;SDS011;6660;48.828;9.120;2022-07-25T02:49:01;10.02;;;9.32;;
13189;SDS011;6660;48.828;9.120;2022-07-25T02:51:28;10.15;;;9.45;;
13189;SDS011;6660;48.828;9.120;2022-07-25T02:53:56;10.23;;;9.43;;
13189;SDS011;6660;48.828;9.120;2022-07-25T02:56:23;9.73;;;9.02;;
13189;SDS011;6660;48.828;9.120;2022-07-25T02:58:50;9.80;;;9.10;;
13189;SDS011;6660;48.828;9.120;2022-07-25T03:01:17;9.93;;;9.13;;
13189;SDS011;6660;48.828;9.120;2022-07-25T03:03:46;9.98;;;9.20;;
13189;SDS011;6660;48.828;9.120;2022-07-25T03:06:13;10.52;;;9.82;;
13189;SDS011;6660;48.828;9.120;2022-07-25T03:08:40;10.02;;;9.25;;
13189;SDS011;6660;48.828;9.120;2022-07-25T03:11:08;9.80;;;9.10;;
13189;SDS011;6660;48.828;9.120;2022-07-25T03:13:35;10.13;;;9.32;;
13189;SDS011;6660;48.828;9.120;2022-07-25T03:16:02;10.75;;;9.85;;
13189;SDS011;6660;48.828;9.120;2022-07-25T03:18:29;10.52;;;9.75;;
13189;SDS011;6660;48.828;9.120;2022-07-25T03:20:58;9.73;;;9.02;;
13189;SDS011;6660;48.828;9.120;2022-07-25T03:23:25;10.05;;;9.25;;
13189;SDS011;6660;48.828;9.120;2022-07-25T03:25:54;10.20;;;9.50;;
13189;SDS011;6660;48.828;9.120;2022-07-25T03:28:21;9.93;;;9.20;;
13189;SDS011;6660;48.828;9.120;2022-07-25T03:30:55;10.15;;;9.45;;
13189;SDS011;6660;48.828;9.120;2022-07-25T03:33:22;9.77;;;9.02;;
13189;SDS011;6660;48.828;9.120;2022-07-25T03:35:49;10.18;;;9.38;;
13189;SDS011;6660;48.828;9.120;2022-07-25T03:38:18;10.10;;;9.40;;
13189;SDS011;6660;48.828;9.120;2022-07-25T03:40:45;9.93;;;9.23;;
13189;SDS011;6660;48.828;9.120;2022-07-25T03:43:12;9.40;;;8.73;;
13189;SDS011;6660;48.828;9.120;2022-07-25T03:45:40;10.23;;;9.32;;
13189;SDS011;6660;48.828;9.120;2022-07-25T03:48:07;10.18;;;9.43;;
13189;SDS011;6660;48.828;9.120;2022-07-25T03:50:34;9.45;;;8.75;;
13189;SDS011;6660;48.828;9.120;2022-07-25T03:53:02;9.88;;;9.07;;
13189;SDS011;6660;48.828;9.120;2022-07-25T03:55:30;9.60;;;8.90;;
13189;SDS011;6660;48.828;9.120;2022-07-25T03:57:57;9.93;;;9.13;;
13189;SDS011;6660;48.828;9.120;2022-07-25T04:00:25;9.60;;;8.90;;
13189;SDS011;6660;48.828;9.120;2022-07-25T04:02:52;9.65;;;8.95;;
13189;SDS011;6660;48.828;9.120;2022-07-25T04:05:23;10.60;;;9.77;;
13189;SDS011;6660;48.828;9.120;2022-07-25T04:07:50;9.90;;;9.10;;
13189;SDS011;6660;48.828;9.120;2022-07-25T04:10:17;9.90;;;9.20;;
13189;SDS011;6660;48.828;9.120;2022-07-25T04:12:46;9.77;;;8.98;;
13189;SDS011;6660;48.828;9.120;2022-07-25T04:15:13;9.98;;;9.18;;
13189;SDS011;6660;48.828;9.120;2022-07-25T04:17:41;10.32;;;9.52;;
13189;SDS011;6660;48.828;9.120;2022-07-25T04:20:08;10.43;;;9.52;;
13189;SDS011;6660;48.828;9.120;2022-07-25T04:22:35;9.68;;;8.98;;
13189;SDS011;6660;48.828;9.120;2022-07-25T04:25:03;10.13;;;9.38;;
13189;SDS011;6660;48.828;9.120;2022-07-25T04:27:31;10.95;;;10.15;;
13189;SDS011;6660;48.828;9.120;2022-07-25T04:29:59;10.55;;;9.75;;
13189;SDS011;6660;48.828;9.120;2022-07-25T04:32:27;11.05;;;10.23;;
13189;SDS011;6660;48.828;9.120;2022-07-25T04:34:54;10.07;;;9.27;;
13189;SDS011;6660;48.828;9.120;2022-07-25T04:37:21;9.65;;;8.95;;
13189;SDS011;6660;48.828;9.120;2022-07-25T04:39:49;9.60;;;8.80;;
13189;SDS011;6660;48.828;9.120;2022-07-25T04:42:16;9.30;;;8.60;;
13189;SDS011;6660;48.828;9.120;2022-07-25T04:44:43;9.80;;;9.10;;
13189;SDS011;6660;48.828;9.120;2022-07-25T04:47:12;9.88;;;9.18;;
13189;SDS011;6660;48.828;9.120;2022-07-25T04:49:39;9.68;;;8.88;;
13189;SDS011;6660;48.828;9.120;2022-07-25T04:52:07;9.48;;;8.68;;
13189;SDS011;6660;48.828;9.120;2022-07-25T04:54:34;9.75;;;8.88;;
13189;SDS011;6660;48.828;9.120;2022-07-25T04:57:01;9.88;;;8.93;;
13189;SDS011;6660;48.828;9.120;2022-07-25T04:59:29;14.98;;;10.30;;
13189;SDS011;6660;48.828;9.120;2022-07-25T05:01:57;11.43;;;10.23;;
13189;SDS011;6660;48.828;9.120;2022-07-25T05:04:26;16.33;;;10.85;;
13189;SDS011;6660;48.828;9.120;2022-07-25T05:06:53;10.68;;;9.68;;
13189;SDS011;6660;48.828;9.120;2022-07-25T05:09:21;10.63;;;9.73;;
13189;SDS011;6660;48.828;9.120;2022-07-25T05:11:48;10.43;;;9.60;;
13189;SDS011;6660;48.828;9.120;2022-07-25T05:14:15;10.90;;;9.88;;
13189;SDS011;6660;48.828;9.120;2022-07-25T05:16:43;10.50;;;9.57;;
13189;SDS011;6660;48.828;9.120;2022-07-25T05:19:12;10.15;;;9.32;;
13189;SDS011;6660;48.828;9.120;2022-07-25T05:21:41;10.45;;;9.65;;
13189;SDS011;6660;48.828;9.120;2022-07-25T05:24:08;10.00;;;9.20;;
13189;SDS011;6660;48.828;9.120;2022-07-25T05:26:38;9.95;;;9.25;;
13189;SDS011;6660;48.828;9.120;2022-07-25T05:29:25;10.85;;;9.85;;
13189;SDS011;6660;48.828;9.120;2022-07-25T05:31:52;10.32;;;9.43;;
13189;SDS011;6660;48.828;9.120;2022-07-25T05:34:20;11.00;;;9.90;;
13189;SDS011;6660;48.828;9.120;2022-07-25T05:36:48;11.10;;;9.95;;
13189;SDS011;6660;48.828;9.120;2022-07-25T05:39:16;10.32;;;9.38;;
13189;SDS011;6660;48.828;9.120;2022-07-25T05:41:43;10.23;;;9.30;;
13189;SDS011;6660;48.828;9.120;2022-07-25T05:44:10;10.98;;;9.32;;
13189;SDS011;6660;48.828;9.120;2022-07-25T05:46:37;9.52;;;8.68;;
13189;SDS011;6660;48.828;9.120;2022-07-25T05:49:05;10.05;;;9.25;;
13189;SDS011;6660;48.828;9.120;2022-07-25T05:51:32;11.10;;;9.10;;
13189;SDS011;6660;48.828;9.120;2022-07-25T05:54:01;52.88;;;31.60;;
13189;SDS011;6660;48.828;9.120;2022-07-25T05:56:28;55.15;;;36.88;;
13189;SDS011;6660;48.828;9.120;2022-07-25T05:58:55;34.42;;;22.30;;
13189;SDS011;6660;48.828;9.120;2022-07-25T06:01:23;21.25;;;16.90;;
13189;SDS011;6660;48.828;9.120;2022-07-25T06:03:50;15.65;;;14.02;;
13189;SDS011;6660;48.828;9.120;2022-07-25T06:06:17;15.82;;;12.55;;
13189;SDS011;6660;48.828;9.120;2022-07-25T06:08:45;13.98;;;12.57;;
13189;SDS011;6660;48.828;9.120;2022-07-25T06:11:13;14.18;;;12.35;;
13189;SDS011;6660;48.828;9.120;2022-07-25T06:13:41;13.85;;;12.35;;
13189;SDS011;6660;48.828;9.120;2022-07-25T06:16:08;14.73;;;13.07;;
13189;SDS011;6660;48.828;9.120;2022-07-25T06:18:35;14.20;;;12.13;;
13189;SDS011;6660;48.828;9.120;2022-07-25T06:21:04;15.02;;;12.65;;
13189;SDS011;6660;48.828;9.120;2022-07-25T06:23:32;14.02;;;12.63;;
13189;SDS011;6660;48.828;9.120;2022-07-25T06:25:59;12.48;;;11.27;;
13189;SDS011;6660;48.828;9.120;2022-07-25T06:28:28;11.30;;;10.30;;
13189;SDS011;6660;48.828;9.120;2022-07-25T06:30:55;11.05;;;10.00;;
13189;SDS011;6660;48.828;9.120;2022-07-25T06:33:22;10.80;;;9.90;;
13189;SDS011;6660;48.828;9.120;2022-07-25T06:35:50;10.48;;;9.57;;
13189;SDS011;6660;48.828;9.120;2022-07-25T06:38:17;10.15;;;9.35;;
13189;SDS011;6660;48.828;9.120;2022-07-25T06:40:46;10.73;;;9.90;;
13189;SDS011;6660;48.828;9.120;2022-07-25T06:43:13;10.80;;;10.00;;
13189;SDS011;6660;48.828;9.120;2022-07-25T06:45:42;10.73;;;9.80;;
13189;SDS011;6660;48.828;9.120;2022-07-25T06:48:11;9.90;;;9.10;;
13189;SDS011;6660;48.828;9.120;2022-07-25T06:50:38;10.38;;;9.48;;
13189;SDS011;6660;48.828;9.120;2022-07-25T06:53:06;10.35;;;9.50;;
13189;SDS011;6660;48.828;9.120;2022-07-25T06:55:36;9.95;;;9.15;;
13189;SDS011;6660;48.828;9.120;2022-07-25T06:58:03;9.38;;;8.65;;
13189;SDS011;6660;48.828;9.120;2022-07-25T07:00:30;10.20;;;9.30;;
13189;SDS011;6660;48.828;9.120;2022-07-25T07:03:01;9.68;;;8.88;;
13189;SDS011;6660;48.828;9.120;2022-07-25T07:05:29;10.38;;;9.57;;
13189;SDS011;6660;48.828;9.120;2022-07-25T07:07:57;9.85;;;9.15;;
13189;SDS011;6660;48.828;9.120;2022-07-25T07:10:25;10.00;;;9.25;;
13189;SDS011;6660;48.828;9.120;2022-07-25T07:13:01;9.90;;;9.10;;
13189;SDS011;6660;48.828;9.120;2022-07-25T07:15:28;9.57;;;8.77;;
13189;SDS011;6660;48.828;9.120;2022-07-25T07:17:55;9.45;;;8.73;;
13189;SDS011;6660;48.828;9.120;2022-07-25T07:20:24;10.07;;;9.38;;
13189;SDS011;6660;48.828;9.120;2022-07-25T07:22:52;10.27;;;9.50;;
13189;SDS011;6660;48.828;9.120;2022-07-25T07:25:19;10.50;;;9.70;;
13189;SDS011;6660;48.828;9.120;2022-07-25T07:27:48;9.63;;;8.82;;
13189;SDS011;6660;48.828;9.120;2022-07-25T07:30:15;10.18;;;9.48;;
13189;SDS011;6660;48.828;9.120;2022-07-25T07:32:43;10.13;;;9.32;;
13189;SDS011;6660;48.828;9.120;2022-07-25T07:35:10;9.52;;;8.82;;
13189;SDS011;6660;48.828;9.120;2022-07-25T07:37:42;10.32;;;9.57;;
13189;SDS011;6660;48.828;9.120;2022-07-25T07:40:09;9.75;;;9.05;;
13189;SDS011;6660;48.828;9.120;2022-07-25T07:42:38;10.20;;;9.40;;
13189;SDS011;6660;48.828;9.120;2022-07-25T07:45:12;10.23;;;9.43;;
13189;SDS011;6660;48.828;9.120;2022-07-25T07:47:39;10.18;;;9.40;;
13189;SDS011;6660;48.828;9.120;2022-07-25T07:50:07;9.85;;;9.18;;
13189;SDS011;6660;48.828;9.120;2022-07-25T07:52:35;9.98;;;9.20;;
13189;SDS011;6660;48.828;9.120;2022-07-25T07:55:04;10.18;;;9.27;;
13189;SDS011;6660;48.828;9.120;2022-07-25T07:57:49;9.75;;;9.15;;
13189;SDS011;6660;48.828;9.120;2022-07-25T08:00:17;9.68;;;8.93;;
13189;SDS011;6660;48.828;9.120;2022-07-25T08:02:45;10.07;;;9.38;;
13189;SDS011;6660;48.828;9.120;2022-07-25T08:05:12;10.07;;;9.35;;
13189;SDS011;6660;48.828;9.120;2022-07-25T08:07:39;9.70;;;8.90;;
13189;SDS011;6660;48.828;9.120;2022-07-25T08:10:11;9.90;;;9.18;;
13189;SDS011;6660;48.828;9.120;2022-07-25T08:12:39;10.30;;;9.40;;
13189;SDS011;6660;48.828;9.120;2022-07-25T08:15:09;9.82;;;9.02;;
13189;SDS011;6660;48.828;9.120;2022-07-25T08:17:36;9.65;;;8.95;;
13189;SDS011;6660;48.828;9.120;2022-07-25T08:20:04;9.60;;;8.90;;
13189;SDS011;6660;48.828;9.120;2022-07-25T08:22:35;9.63;;;8.80;;
13189;SDS011;6660;48.828;9.120;2022-07-25T08:25:04;10.15;;;9.35;;
13189;SDS011;6660;48.828;9.120;2022-07-25T08:27:33;9.80;;;9.10;;
13189;SDS011;6660;48.828;9.120;2022-07-25T08:30:03;9.55;;;8.90;;
13189;SDS011;6660;48.828;9.120;2022-07-25T08:32:31;9.20;;;8.60;;
13189;SDS011;6660;48.828;9.120;2022-07-25T08:34:58;10.02;;;9.18;;
13189;SDS011;6660;48.828;9.120;2022-07-25T08:37:27;9.90;;;8.95;;
13189;SDS011;6660;48.828;9.120;2022-07-25T08:39:54;10.40;;;9.50;;
13189;SDS011;6660;48.828;9.120;2022-07-25T08:42:21;9.45;;;8.75;;
13189;SDS011;6660;48.828;9.120;2022-07-25T08:44:55;10.18;;;9.48;;
13189;SDS011;6660;48.828;9.120;2022-07-25T08:47:22;9.60;;;8.80;;
13189;SDS011;6660;48.828;9.120;2022-07-25T08:49:49;9.13;;;8.50;;
13189;SDS011;6660;48.828;9.120;2022-07-25T08:52:17;9.95;;;9.25;;
13189;SDS011;6660;48.828;9.120;2022-07-25T08:54:44;9.25;;;8.63;;
13189;SDS011;6660;48.828;9.120;2022-07-25T08:57:12;9.20;;;8.60;;
13189;SDS011;6660;48.828;9.120;2022-07-25T08:59:40;9.50;;;8.70;;
13189;SDS011;6660;48.828;9.120;2022-07-25T09:02:11;9.60;;;8.90;;
13189;SDS011;6660;48.828;9.120;2022-07-25T09:04:39;9.80;;;9.00;;
13189;SDS011;6660;48.828;9.120;2022-07-25T09:07:07;9.90;;;9.10;;
13189;SDS011;6660;48.828;9.120;2022-07-25T09:09:36;9.82;;;9.13;;
13189;SDS011;6660;48.828;9.120;2022-07-25T09:12:04;9.35;;;8.65;;
13189;SDS011;6660;48.828;9.120;2022-07-25T09:14:39;8.98;;;8.27;;
13189;SDS011;6660;48.828;9.120;2022-07-25T09:17:07;9.90;;;9.10;;
13189;SDS011;6660;48.828;9.120;2022-07-25T09:19:35;9.88;;;9.07;;
13189;SDS011;6660;48.828;9.120;2022-07-25T09:22:03;10.23;;;9.35;;
13189;SDS011;6660;48.828;9.120;2022-07-25T09:24:31;9.80;;;9.00;;
13189;SDS011;6660;48.828;9.120;2022-07-25T09:26:59;9.73;;;9.02;;
13189;SDS011;6660;48.828;9.120;2022-07-25T09:29:27;10.35;;;9.52;;
13189;SDS011;6660;48.828;9.120;2022-07-25T09:31:55;9.73;;;9.02;;
13189;SDS011;6660;48.828;9.120;2022-07-25T09:34:30;10.55;;;9.75;;
13189;SDS011;6660;48.828;9.120;2022-07-25T09:37:00;9.40;;;8.70;;
13189;SDS011;6660;48.828;9.120;2022-07-25T09:39:34;9.45;;;8.75;;
13189;SDS011;6660;48.828;9.120;2022-07-25T09:42:01;9.30;;;8.60;;
13189;SDS011;6660;48.828;9.120;2022-07-25T09:44:29;10.63;;;9.73;;
13189;SDS011;6660;48.828;9.120;2022-07-25T09:46:56;10.15;;;9.30;;
13189;SDS011;6660;48.828;9.120;2022-07-25T09:49:24;9.70;;;9.00;;
13189;SDS011;6660;48.828;9.120;2022-07-25T09:51:51;9.75;;;9.02;;
13189;SDS011;6660;48.828;9.120;2022-07-25T09:54:20;9.43;;;8.73;;
13189;SDS011;6660;48.828;9.120;2022-07-25T09:56:51;9.65;;;8.95;;
13189;SDS011;6660;48.828;9.120;2022-07-25T09:59:18;9.20;;;8.40;;
13189;SDS011;6660;48.828;9.120;2022-07-25T10:01:46;9.32;;;8.63;;
13189;SDS011;6660;48.828;9.120;2022-07-25T10:04:16;21.20;;;11.18;;
13189;SDS011;6660;48.828;9.120;2022-07-25T10:06:46;12.77;;;9.88;;
13189;SDS011;6660;48.828;9.120;2022-07-25T10:09:16;10.10;;;9.20;;
13189;SDS011;6660;48.828;9.120;2022-07-25T10:14:27;9.38;;;8.55;;
13189;SDS011;6660;48.828;9.120;2022-07-25T10:16:55;8.98;;;8.27;;
13189;SDS011;6660;48.828;9.120;2022-07-25T10:19:38;10.10;;;9.30;;
13189;SDS011;6660;48.828;9.120;2022-07-25T10:22:06;9.60;;;8.80;;
13189;SDS011;6660;48.828;9.120;2022-07-25T10:24:34;10.05;;;9.23;;
13189;SDS011;6660;48.828;9.120;2022-07-25T10:27:06;9.43;;;8.57;;
13189;SDS011;6660;48.828;9.120;2022-07-25T10:29:37;9.52;;;8.82;;
13189;SDS011;6660;48.828;9.120;2022-07-25T10:32:05;9.38;;;8.68;;
13189;SDS011;6660;48.828;9.120;2022-07-25T10:34:37;9.43;;;8.63;;
13189;SDS011;6660;48.828;9.120;2022-07-25T10:37:08;9.38;;;8.65;;
13189;SDS011;6660;48.828;9.120;2022-07-25T10:39:39;9.05;;;8.35;;
13189;SDS011;6660;48.828;9.120;2022-07-25T10:42:13;9.45;;;8.45;;
13189;SDS011;6660;48.828;9.120;2022-07-25T10:44:47;8.93;;;8.23;;
13189;SDS011;6660;48.828;9.120;2022-07-25T10:47:25;9.18;;;8.48;;
13189;SDS011;6660;48.828;9.120;2022-07-25T10:50:02;9.30;;;8.50;;
13189;SDS011;6660;48.828;9.120;2022-07-25T10:52:30;8.50;;;7.88;;
13189;SDS011;6660;48.828;9.120;2022-07-25T10:54:58;8.98;;;8.27;;
13189;SDS011;6660;48.828;9.120;2022-07-25T10:57:34;9.30;;;7.72;;
13189;SDS011;6660;48.828;9.120;2022-07-25T11:00:10;9.02;;;8.23;;
13189;SDS011;6660;48.828;9.120;2022-07-25T11:02:39;8.52;;;7.63;;
13189;SDS011;6660;48.828;9.120;2022-07-25T11:05:10;8.70;;;7.95;;
13189;SDS011;6660;48.828;9.120;2022-07-25T11:07:50;8.25;;;7.55;;
13189;SDS011;6660;48.828;9.120;2022-07-25T11:10:31;10.13;;;7.45;;
13189;SDS011;6660;48.828;9.120;2022-07-25T11:13:00;7.85;;;7.10;;
13189;SDS011;6660;48.828;9.120;2022-07-25T11:15:31;8.35;;;7.55;;
13189;SDS011;6660;48.828;9.120;2022-07-25T11:17:59;7.88;;;7.28;;
13189;SDS011;6660;48.828;9.120;2022-07-25T11:45:01;8.38;;;7.57;;
13189;SDS011;6660;48.828;9.120;2022-07-25T15:05:54;8.70;;;8.00;;
13189;SDS011;6660;48.828;9.120;2022-07-25T15:08:21;8.48;;;7.88;;
13189;SDS011;6660;48.828;9.120;2022-07-25T15:10:49;8.88;;;8.07;;
13189;SDS011;6660;48.828;9.120;2022-07-25T15:13:16;8.00;;;7.30;;
13189;SDS011;6660;48.828;9.120;2022-07-25T15:15:43;8.57;;;7.97;;
13189;SDS011;6660;48.828;9.120;2022-07-25T15:18:14;8.98;;;8.18;;
13189;SDS011;6660;48.828;9.120;2022-07-25T15:20:41;8.73;;;8.02;;
13189;SDS011;6660;48.828;9.120;2022-07-25T15:23:10;8.93;;;8.13;;
13189;SDS011;6660;48.828;9.120;2022-07-25T15:25:37;8.15;;;7.35;;
13189;SDS011;6660;48.828;9.120;2022-07-25T15:28:07;8.38;;;7.68;;
13189;SDS011;6660;48.828;9.120;2022-07-25T15:30:34;8.02;;;7.32;;
13189;SDS011;6660;48.828;9.120;2022-07-25T15:33:02;7.85;;;7.07;;
13189;SDS011;6660;48.828;9.120;2022-07-25T15:35:29;8.15;;;7.43;;
13189;SDS011;6660;48.828;9.120;2022-07-25T15:38:02;8.13;;;7.53;;
13189;SDS011;6660;48.828;9.120;2022-07-25T15:40:31;8.23;;;7.35;;
13189;SDS011;6660;48.828;9.120;2022-07-25T15:42:58;7.80;;;7.20;;
13189;SDS011;6660;48.828;9.120;2022-07-25T15:45:26;8.48;;;7.70;;
13189;SDS011;6660;48.828;9.120;2022-07-25T15:47:53;7.95;;;7.35;;
13189;SDS011;6660;48.828;9.120;2022-07-25T15:50:21;8.25;;;7.55;;
13189;SDS011;6660;48.828;9.120;2022-07-25T15:52:49;8.00;;;7.40;;
13189;SDS011;6660;48.828;9.120;2022-07-25T15:55:16;7.85;;;7.25;;
13189;SDS011;6660;48.828;9.120;2022-07-25T15:57:51;7.80;;;7.20;;
13189;SDS011;6660;48.828;9.120;2022-07-25T16:00:19;7.90;;;7.30;;
13189;SDS011;6660;48.828;9.120;2022-07-25T16:02:46;7.53;;;6.93;;
13189;SDS011;6660;48.828;9.120;2022-07-25T16:05:21;8.07;;;7.47;;
13189;SDS011;6660;48.828;9.120;2022-07-25T16:07:50;7.63;;;7.07;;
13189;SDS011;6660;48.828;9.120;2022-07-25T16:10:18;7.70;;;7.10;;
13189;SDS011;6660;48.828;9.120;2022-07-25T16:12:45;8.07;;;7.47;;
13189;SDS011;6660;48.828;9.120;2022-07-25T16:15:14;8.00;;;7.40;;
13189;SDS011;6660;48.828;9.120;2022-07-25T16:17:41;7.80;;;7.30;;
13189;SDS011;6660;48.828;9.120;2022-07-25T16:20:09;7.63;;;7.05;;
13189;SDS011;6660;48.828;9.120;2022-07-25T16:22:38;7.93;;;7.32;;
13189;SDS011;6660;48.828;9.120;2022-07-25T16:25:08;7.97;;;7.43;;
13189;SDS011;6660;48.828;9.120;2022-07-25T16:27:35;8.13;;;7.53;;
13189;SDS011;6660;48.828;9.120;2022-07-25T16:30:06;7.25;;;6.75;;
13189;SDS011;6660;48.828;9.120;2022-07-25T16:32:35;7.68;;;7.10;;
13189;SDS011;6660;48.828;9.120;2022-07-25T16:35:02;7.60;;;7.03;;
13189;SDS011;6660;48.828;9.120;2022-07-25T16:37:32;7.90;;;7.30;;
13189;SDS011;6660;48.828;9.120;2022-07-25T16:40:02;7.75;;;7.15;;
13189;SDS011;6660;48.828;9.120;2022-07-25T16:42:31;8.02;;;7.43;;
13189;SDS011;6660;48.828;9.120;2022-07-25T16:44:59;6.97;;;6.47;;
13189;SDS011;6660;48.828;9.120;2022-07-25T16:47:26;7.65;;;7.05;;
13189;SDS011;6660;48.828;9.120;2022-07-25T16:49:55;7.03;;;6.45;;
13189;SDS011;6660;48.828;9.120;2022-07-25T16:52:22;7.05;;;6.57;;
13189;SDS011;6660;48.828;9.120;2022-07-25T16:54:50;7.13;;;6.63;;
13189;SDS011;6660;48.828;9.120;2022-07-25T16:57:17;7.32;;;6.80;;
13189;SDS011;6660;48.828;9.120;2022-07-25T16:59:44;6.65;;;6.20;;
13189;SDS011;6660;48.828;9.120;2022-07-25T17:02:13;6.80;;;6.30;;
13189;SDS011;6660;48.828;9.120;2022-07-25T17:04:40;7.10;;;6.40;;
13189;SDS011;6660;48.828;9.120;2022-07-25T17:07:10;6.90;;;6.35;;
13189;SDS011;6660;48.828;9.120;2022-07-25T17:09:38;6.68;;;6.18;;
13189;SDS011;6660;48.828;9.120;2022-07-25T17:12:09;6.88;;;6.28;;
13189;SDS011;6660;48.828;9.120;2022-07-25T17:14:43;6.40;;;5.88;;
13189;SDS011;6660;48.828;9.120;2022-07-25T17:17:10;6.60;;;6.10;;
13189;SDS011;6660;48.828;9.120;2022-07-25T17:19:38;7.20;;;6.60;;
13189;SDS011;6660;48.828;9.120;2022-07-25T17:22:08;6.80;;;6.32;;
13189;SDS011;6660;48.828;9.120;2022-07-25T17:24:44;7.20;;;6.60;;
13189;SDS011;6660;48.828;9.120;2022-07-25T17:27:14;22.90;;;16.95;;
13189;SDS011;6660;48.828;9.120;2022-07-25T17:29:42;20.60;;;14.57;;
13189;SDS011;6660;48.828;9.120;2022-07-25T17:32:12;10.85;;;9.75;;
13189;SDS011;6660;48.828;9.120;2022-07-25T17:34:41;9.25;;;8.35;;
13189;SDS011;6660;48.828;9.120;2022-07-25T17:37:11;8.70;;;7.90;;
13189;SDS011;6660;48.828;9.120;2022-07-25T17:39:38;8.25;;;7.63;;
13189;SDS011;6660;48.828;9.120;2022-07-25T17:42:07;6.97;;;6.43;;
13189;SDS011;6660;48.828;9.120;2022-07-25T17:44:42;7.30;;;6.60;;
13189;SDS011;6660;48.828;9.120;2022-07-25T17:47:09;6.45;;;5.95;;
13189;SDS011;6660;48.828;9.120;2022-07-25T17:49:37;5.88;;;5.47;;
13189;SDS011;6660;48.828;9.120;2022-07-25T17:52:06;6.53;;;6.00;;
13189;SDS011;6660;48.828;9.120;2022-07-25T17:54:36;6.55;;;5.97;;
13189;SDS011;6660;48.828;9.120;2022-07-25T17:57:04;8.13;;;6.05;;
13189;SDS011;6660;48.828;9.120;2022-07-25T17:59:33;6.13;;;5.63;;
13189;SDS011;6660;48.828;9.120;2022-07-25T18:02:11;6.53;;;6.00;;
13189;SDS011;6660;48.828;9.120;2022-07-25T18:04:38;6.55;;;6.05;;
13189;SDS011;6660;48.828;9.120;2022-07-25T18:07:19;6.63;;;6.00;;
13189;SDS011;6660;48.828;9.120;2022-07-25T18:09:48;6.57;;;6.05;;
13189;SDS011;6660;48.828;9.120;2022-07-25T18:12:40;5.85;;;5.35;;
13189;SDS011;6660;48.828;9.120;2022-07-25T18:15:14;6.00;;;5.50;;
13189;SDS011;6660;48.828;9.120;2022-07-25T18:17:42;7.00;;;6.40;;
13189;SDS011;6660;48.828;9.120;2022-07-25T18:23:29;12.05;;;9.00;;
13189;SDS011;6660;48.828;9.120;2022-07-25T18:35:14;7.97;;;7.20;;
13189;SDS011;6660;48.828;9.120;2022-07-25T18:40:29;6.80;;;6.20;;
13189;SDS011;6660;48.828;9.120;2022-07-25T18:43:03;8.43;;;6.13;;
13189;SDS011;6660;48.828;9.120;2022-07-25T18:45:33;5.90;;;5.28;;
13189;SDS011;6660;48.828;9.120;2022-07-25T18:48:06;5.85;;;5.13;;
13189;SDS011;6660;48.828;9.120;2022-07-25T18:50:39;6.72;;;5.18;;
13189;SDS011;6660;48.828;9.120;2022-07-25T18:53:10;6.07;;;5.03;;
13189;SDS011;6660;48.828;9.120;2022-07-25T18:55:37;6.80;;;5.25;;
13189;SDS011;6660;48.828;9.120;2022-07-25T18:58:07;5.50;;;4.93;;
13189;SDS011;6660;48.828;9.120;2022-07-25T19:00:39;6.78;;;6.05;;
13189;SDS011;6660;48.828;9.120;2022-07-25T19:03:12;7.32;;;5.75;;
13189;SDS011;6660;48.828;9.120;2022-07-25T19:05:54;6.43;;;5.10;;